createdAt,value
2022-09-23T00:01:38.396Z,12.50
2022-09-23T00:04:06.647Z,12.50
2022-09-23T00:06:35.074Z,12.50
2022-09-23T00:09:03.200Z,12.40
2022-09-23T00:11:31.686Z,12.40
2022-09-23T00:14:01.820Z,12.40
2022-09-23T00:16:34.803Z,12.40
2022-09-23T00:19:05.476Z,12.40
2022-09-23T00:21:33.628Z,12.40
2022-09-23T00:24:02.541Z,12.30
2022-09-23T00:26:30.885Z,12.40
2022-09-23T00:28:59.433Z,12.40
2022-09-23T00:31:29.123Z,12.40
2022-09-23T00:34:01.995Z,12.30
2022-09-23T00:36:32.555Z,12.40
2022-09-23T00:39:01.060Z,12.40
2022-09-23T00:41:29.403Z,12.40
2022-09-23T00:44:00.807Z,12.30
2022-09-23T00:46:36.294Z,12.30
2022-09-23T00:49:12.215Z,12.30
2022-09-23T00:51:46.803Z,12.40
2022-09-23T00:54:15.500Z,12.40
2022-09-23T00:56:44.252Z,12.40
2022-09-23T00:59:14.262Z,12.30
2022-09-23T01:01:44.165Z,12.40
2022-09-23T01:04:15.097Z,12.40
2022-09-23T01:06:43.311Z,12.40
2022-09-23T01:09:11.635Z,12.40
2022-09-23T01:11:50.886Z,12.30
2022-09-23T01:14:42.815Z,12.30
2022-09-23T01:17:22.202Z,12.40
2022-09-23T01:20:30.351Z,12.40
2022-09-23T01:23:21.065Z,12.30
2022-09-23T01:26:22.420Z,12.30
2022-09-23T01:33:26.502Z,12.20
2022-09-23T01:36:10.098Z,12.20
2022-09-23T01:38:53.922Z,12.10
2022-09-23T01:41:49.058Z,12.10
2022-09-23T01:44:29.142Z,12.00
2022-09-23T01:47:11.196Z,12.00
2022-09-23T01:49:51.997Z,11.90
2022-09-23T01:52:32.688Z,11.70
2022-09-23T01:55:09.818Z,11.80
2022-09-23T01:57:44.744Z,11.70
2022-09-23T02:00:17.348Z,11.50
2022-09-23T02:02:53.675Z,11.50
2022-09-23T02:05:31.511Z,11.50
2022-09-23T02:08:07.916Z,11.40
2022-09-23T02:10:44.361Z,11.40
2022-09-23T02:13:21.577Z,11.40
2022-09-23T02:15:57.447Z,11.30
2022-09-23T02:18:29.503Z,11.40
2022-09-23T02:21:07.315Z,11.40
2022-09-23T02:23:42.477Z,11.40
2022-09-23T02:26:20.649Z,11.40
2022-09-23T02:28:58.080Z,11.40
2022-09-23T02:31:32.395Z,11.30
2022-09-23T02:34:14.587Z,11.30
2022-09-23T02:36:57.093Z,11.50
2022-09-23T02:39:39.215Z,11.10
2022-09-23T02:42:14.447Z,11.10
2022-09-23T02:44:43.514Z,11.00
2022-09-23T02:47:12.188Z,10.80
2022-09-23T02:49:40.396Z,10.80
2022-09-23T02:52:13.810Z,10.70
2022-09-23T02:54:42.259Z,10.70
2022-09-23T02:57:12.037Z,10.70
2022-09-23T02:59:41.283Z,10.70
2022-09-23T03:02:41.927Z,10.70
2022-09-23T03:05:24.019Z,10.80
2022-09-23T03:08:18.941Z,10.70
2022-09-23T03:10:59.826Z,10.80
2022-09-23T03:13:39.548Z,10.70
2022-09-23T03:16:21.997Z,10.80
2022-09-23T03:19:00.497Z,10.70
2022-09-23T03:21:36.484Z,10.70
2022-09-23T03:24:14.693Z,10.60
2022-09-23T03:26:48.237Z,10.60
2022-09-23T03:29:20.264Z,10.60
2022-09-23T03:31:49.264Z,10.50
2022-09-23T03:34:24.177Z,10.50
2022-09-23T03:37:00.851Z,10.50
2022-09-23T03:39:40.637Z,10.40
2022-09-23T03:42:17.265Z,10.40
2022-09-23T03:44:47.649Z,10.50
2022-09-23T03:47:18.929Z,10.30
2022-09-23T03:49:49.628Z,10.30
2022-09-23T03:52:20.160Z,10.30
2022-09-23T03:54:52.020Z,10.30
2022-09-23T03:57:22.388Z,10.30
2022-09-23T03:59:51.563Z,10.30
2022-09-23T04:02:21.132Z,10.30
2022-09-23T04:04:49.954Z,10.20
2022-09-23T04:07:19.115Z,10.20
2022-09-23T04:09:47.277Z,10.20
2022-09-23T04:12:18.124Z,10.20
2022-09-23T04:14:46.648Z,10.20
2022-09-23T04:17:15.159Z,10.20
2022-09-23T04:19:45.330Z,10.10
2022-09-23T04:22:13.778Z,10.10
2022-09-23T04:24:41.873Z,10.10
2022-09-23T04:27:10.341Z,10.00
2022-09-23T04:29:40.384Z,10.00
2022-09-23T04:32:08.560Z,9.90
2022-09-23T04:34:37.346Z,9.80
2022-09-23T04:37:06.298Z,9.70
2022-09-23T04:39:34.444Z,9.70
2022-09-23T04:42:04.162Z,9.60
2022-09-23T04:44:33.645Z,9.50
2022-09-23T04:47:04.365Z,9.40
2022-09-23T04:49:33.728Z,9.30
2022-09-23T04:52:02.743Z,9.20
2022-09-23T04:54:31.081Z,9.20
2022-09-23T04:56:59.150Z,9.20
2022-09-23T04:59:27.228Z,9.30
2022-09-23T05:01:55.543Z,9.30
2022-09-23T05:04:25.472Z,9.30
2022-09-23T05:06:53.956Z,9.30
2022-09-23T05:09:22.568Z,9.40
2022-09-23T05:11:53.784Z,9.40
2022-09-23T05:14:22.560Z,9.40
2022-09-23T05:16:50.707Z,9.40
2022-09-23T05:19:42.497Z,9.40
2022-09-23T05:22:10.561Z,9.50
2022-09-23T05:24:38.693Z,9.50
2022-09-23T05:27:07.805Z,9.50
2022-09-23T05:29:36.366Z,9.60
2022-09-23T05:32:04.642Z,9.60
2022-09-23T05:34:33.595Z,9.60
2022-09-23T05:37:03.401Z,9.60
2022-09-23T05:39:31.434Z,9.60
2022-09-23T05:42:00.333Z,9.70
2022-09-23T05:44:28.445Z,9.70
2022-09-23T05:46:56.846Z,9.80
2022-09-23T05:49:42.620Z,9.70
2022-09-23T05:52:14.581Z,9.80
2022-09-23T05:54:42.629Z,9.90
2022-09-23T05:57:11.063Z,9.90
2022-09-23T05:59:39.707Z,10.00
2022-09-23T06:02:09.247Z,10.10
2022-09-23T06:04:37.927Z,10.20
2022-09-23T06:07:06.470Z,10.30
2022-09-23T06:09:36.850Z,10.30
2022-09-23T06:12:06.637Z,10.50
2022-09-23T06:14:34.901Z,10.40
2022-09-23T06:17:03.310Z,10.50
2022-09-23T06:19:31.789Z,10.60
2022-09-23T06:21:59.896Z,10.70
2022-09-23T06:24:31.340Z,10.80
2022-09-23T06:27:02.473Z,10.90
2022-09-23T06:29:33.190Z,11.00
2022-09-23T06:32:01.666Z,11.20
2022-09-23T06:34:31.581Z,11.30
2022-09-23T06:37:14.362Z,11.40
2022-09-23T06:39:45.615Z,11.50
2022-09-23T06:42:15.846Z,11.60
2022-09-23T06:44:44.297Z,11.70
2022-09-23T06:47:12.300Z,11.90
2022-09-23T06:49:41.135Z,12.00
2022-09-23T06:52:10.032Z,12.10
2022-09-23T06:54:38.069Z,12.10
2022-09-23T06:57:06.652Z,12.30
2022-09-23T06:59:36.048Z,12.30
2022-09-23T07:02:04.633Z,12.30
2022-09-23T07:04:33.189Z,12.40
2022-09-23T07:07:01.413Z,12.40
2022-09-23T07:09:30.070Z,12.50
2022-09-23T07:11:58.646Z,12.50
2022-09-23T07:14:26.937Z,12.60
2022-09-23T07:16:57.443Z,12.60
2022-09-23T07:19:26.100Z,12.70
2022-09-23T07:21:54.375Z,12.80
2022-09-23T07:24:22.800Z,12.90
2022-09-23T07:26:51.099Z,12.90
2022-09-23T07:29:19.116Z,12.90
2022-09-23T07:31:47.667Z,13.00
2022-09-23T07:34:18.217Z,12.90
2022-09-23T07:36:46.324Z,13.00
2022-09-23T07:39:15.140Z,13.00
2022-09-23T07:41:44.465Z,13.00
2022-09-23T07:44:13.154Z,13.10
2022-09-23T07:46:41.921Z,13.10
2022-09-23T07:49:10.641Z,13.20
2022-09-23T07:51:43.230Z,13.20
2022-09-23T07:54:14.618Z,13.30
2022-09-23T07:56:44.158Z,13.40
2022-09-23T07:59:15.536Z,13.40
2022-09-23T08:01:46.382Z,13.40
2022-09-23T08:04:18.244Z,13.50
2022-09-23T08:06:49.881Z,13.60
2022-09-23T08:09:23.973Z,13.70
2022-09-23T08:11:53.658Z,13.80
2022-09-23T08:14:23.372Z,13.90
2022-09-23T08:16:52.865Z,13.90
2022-09-23T08:19:21.497Z,14.00
2022-09-23T08:21:52.683Z,14.10
2022-09-23T08:24:23.713Z,14.20
2022-09-23T08:26:54.054Z,14.20
2022-09-23T08:29:25.180Z,14.20
2022-09-23T08:31:54.661Z,14.20
2022-09-23T08:34:24.693Z,14.20
2022-09-23T08:36:54.283Z,14.20
2022-09-23T08:39:23.027Z,14.30
2022-09-23T08:42:16.091Z,14.30
2022-09-23T08:44:50.777Z,14.30
2022-09-23T08:47:29.482Z,14.30
2022-09-23T08:50:06.522Z,14.40
2022-09-23T08:52:46.094Z,14.50
2022-09-23T08:55:16.843Z,14.60
2022-09-23T09:01:10.115Z,14.70
2022-09-23T09:03:50.593Z,14.70
2022-09-23T09:06:28.684Z,14.80
2022-09-23T09:09:02.677Z,14.90
2022-09-23T09:11:38.028Z,14.90
2022-09-23T09:14:21.917Z,15.00
2022-09-23T09:17:01.423Z,15.10
2022-09-23T09:19:55.528Z,15.20
2022-09-23T09:22:48.369Z,15.30
2022-09-23T09:25:37.602Z,15.40
2022-09-23T09:28:19.735Z,15.40
2022-09-23T09:30:54.175Z,15.50
2022-09-23T09:33:30.916Z,15.60
2022-09-23T09:36:27.679Z,15.60
2022-09-23T09:38:58.847Z,15.60
2022-09-23T09:41:31.850Z,15.80
2022-09-23T09:44:09.623Z,15.90
2022-09-23T09:46:53.577Z,15.90
2022-09-23T09:49:40.271Z,15.90
2022-09-23T09:52:23.206Z,16.00
2022-09-23T09:54:52.780Z,16.10
2022-09-23T09:57:35.379Z,16.10
2022-09-23T10:00:36.023Z,16.20
2022-09-23T10:03:27.865Z,16.20
2022-09-23T10:05:57.663Z,16.20
2022-09-23T10:08:32.620Z,16.40
2022-09-23T10:11:05.361Z,16.60
2022-09-23T10:13:36.531Z,16.80
2022-09-23T10:16:06.554Z,16.90
2022-09-23T10:18:39.415Z,17.10
2022-09-23T10:21:12.156Z,17.30
2022-09-23T10:23:44.899Z,17.50
2022-09-23T10:26:17.811Z,17.80
2022-09-23T10:28:52.466Z,18.30
2022-09-23T10:31:27.313Z,18.80
2022-09-23T10:34:00.155Z,19.30
2022-09-23T10:36:30.781Z,19.70
2022-09-23T10:39:15.762Z,20.20
2022-09-23T10:42:14.638Z,20.70
2022-09-23T10:45:20.170Z,21.20
2022-09-23T10:48:03.139Z,21.50
2022-09-23T10:50:43.252Z,21.70
2022-09-23T10:53:26.157Z,22.20
2022-09-23T10:56:13.761Z,22.60
2022-09-23T10:59:17.889Z,23.00
2022-09-23T11:02:02.814Z,23.50
2022-09-23T11:05:13.958Z,24.00
2022-09-23T11:07:53.629Z,24.30
2022-09-23T11:10:55.765Z,24.40
2022-09-23T11:13:56.071Z,24.90
2022-09-23T11:16:44.111Z,25.30
2022-09-23T11:19:54.037Z,25.70
2022-09-23T11:22:45.805Z,26.20
2022-09-23T11:25:36.347Z,26.70
2022-09-23T11:28:38.724Z,26.80
2022-09-23T11:31:24.782Z,27.10
2022-09-23T11:34:31.538Z,27.50
2022-09-23T11:37:09.435Z,28.00
2022-09-23T11:39:47.156Z,28.60
2022-09-23T11:42:23.727Z,28.30
2022-09-23T11:45:00.649Z,28.60
2022-09-23T11:47:39.791Z,28.40
2022-09-23T11:50:25.944Z,28.30
2022-09-23T11:53:06.995Z,28.50
2022-09-23T11:55:56.845Z,28.30
2022-09-23T11:58:34.213Z,28.20
2022-09-23T12:01:10.839Z,28.40
2022-09-23T12:03:51.721Z,28.80
2022-09-23T12:06:24.430Z,29.40
2022-09-23T12:09:02.573Z,29.50
2022-09-23T12:11:39.871Z,29.60
2022-09-23T12:14:21.495Z,29.30
2022-09-23T12:17:26.894Z,29.10
2022-09-23T12:20:21.609Z,28.50
2022-09-23T12:23:09.690Z,27.80
2022-09-23T12:25:47.043Z,27.80
2022-09-23T12:28:21.097Z,27.80
2022-09-23T12:30:52.404Z,27.50
2022-09-23T12:33:26.471Z,27.00
2022-09-23T12:35:57.191Z,26.50
2022-09-23T12:38:31.374Z,26.40
2022-09-23T12:41:01.967Z,26.60
2022-09-23T12:43:35.811Z,26.80
2022-09-23T12:46:26.205Z,26.90
2022-09-23T12:49:06.695Z,26.90
2022-09-23T12:51:37.097Z,26.40
2022-09-23T12:54:25.499Z,26.00
2022-09-23T12:57:04.553Z,25.50
2022-09-23T12:59:59.484Z,25.20
2022-09-23T13:02:35.674Z,25.20
2022-09-23T13:05:40.563Z,25.50
2022-09-23T13:08:14.530Z,26.50
2022-09-23T13:10:49.430Z,26.90
2022-09-23T13:13:26.375Z,27.20
2022-09-23T13:15:55.077Z,27.50
2022-09-23T13:18:52.807Z,28.70
2022-09-23T13:22:14.018Z,29.40
2022-09-23T13:24:48.165Z,29.60
2022-09-23T13:27:24.403Z,29.60
2022-09-23T13:30:01.598Z,29.50
2022-09-23T13:32:34.128Z,29.40
2022-09-23T13:35:06.268Z,29.60
2022-09-23T13:37:46.443Z,29.20
2022-09-23T13:40:24.741Z,28.40
2022-09-23T13:42:59.335Z,27.70
2022-09-23T13:45:32.244Z,27.10
2022-09-23T13:48:07.647Z,26.70
2022-09-23T13:50:40.757Z,26.30
2022-09-23T13:53:14.272Z,25.80
2022-09-23T13:55:42.571Z,25.20
2022-09-23T13:58:21.540Z,24.70
2022-09-23T14:00:53.045Z,24.30
2022-09-23T14:03:36.193Z,24.10
2022-09-23T14:06:10.830Z,23.90
2022-09-23T14:08:44.967Z,23.40
2022-09-23T14:11:17.988Z,23.20
2022-09-23T14:13:50.847Z,22.90
2022-09-23T14:16:21.142Z,22.60
2022-09-23T14:18:52.614Z,22.30
2022-09-23T14:21:34.750Z,22.20
2022-09-23T14:24:19.246Z,22.00
2022-09-23T14:26:51.312Z,22.00
2022-09-23T14:29:25.506Z,22.00
2022-09-23T14:31:58.532Z,21.90
2022-09-23T14:34:50.023Z,21.70
2022-09-23T14:37:45.369Z,21.40
2022-09-23T14:40:18.791Z,21.20
2022-09-23T14:42:52.333Z,21.00
2022-09-23T14:45:23.049Z,20.90
2022-09-23T14:47:58.239Z,20.80
2022-09-23T14:50:47.111Z,20.60
2022-09-23T14:53:38.116Z,20.50
2022-09-23T14:56:20.205Z,20.50
2022-09-23T14:58:53.461Z,20.40
2022-09-23T15:01:39.058Z,20.30
2022-09-23T15:04:18.924Z,20.30
2022-09-23T15:06:53.061Z,20.10
2022-09-23T15:09:26.983Z,20.00
2022-09-23T15:12:01.997Z,19.80
2022-09-23T15:14:38.823Z,19.90
2022-09-23T15:17:21.640Z,19.70
2022-09-23T15:19:57.017Z,19.70
2022-09-23T15:22:26.385Z,19.80
2022-09-23T15:24:56.717Z,19.80
2022-09-23T15:27:33.400Z,19.70
2022-09-23T15:30:16.940Z,19.60
2022-09-23T15:32:46.435Z,19.50
2022-09-23T15:35:19.104Z,19.50
2022-09-23T15:37:50.286Z,19.40
2022-09-23T15:40:25.556Z,19.30
2022-09-23T15:42:57.487Z,19.30
2022-09-23T15:45:34.704Z,19.30
2022-09-23T15:48:08.885Z,19.30
2022-09-23T15:50:39.557Z,19.20
2022-09-23T15:53:09.078Z,19.20
2022-09-23T15:55:37.142Z,19.00
2022-09-23T15:58:05.220Z,19.00
2022-09-23T16:00:35.382Z,19.00
2022-09-23T16:03:04.413Z,18.90
2022-09-23T16:05:38.057Z,18.80
2022-09-23T16:08:11.462Z,18.80
2022-09-23T16:10:39.794Z,18.80
2022-09-23T16:13:12.754Z,18.80
2022-09-23T16:15:41.996Z,18.70
2022-09-23T16:18:11.613Z,18.70
2022-09-23T16:20:44.467Z,18.60
2022-09-23T16:23:34.314Z,18.80
2022-09-23T16:26:08.610Z,18.60
2022-09-23T16:28:37.080Z,18.60
2022-09-23T16:31:05.649Z,18.50
2022-09-23T16:33:34.235Z,18.40
2022-09-23T16:36:03.767Z,18.40
2022-09-23T16:38:33.699Z,18.40
2022-09-23T16:41:02.882Z,18.40
2022-09-23T16:43:33.008Z,18.30
2022-09-23T16:46:01.167Z,18.30
2022-09-23T16:48:29.937Z,18.20
2022-09-23T16:50:58.033Z,18.10
2022-09-23T16:53:30.025Z,18.00
2022-09-23T16:55:59.502Z,17.90
2022-09-23T16:58:27.920Z,17.80
2022-09-23T17:01:16.323Z,17.80
2022-09-23T17:03:45.150Z,17.60
2022-09-23T17:06:14.146Z,17.50
2022-09-23T17:08:43.297Z,17.40
2022-09-23T17:11:14.314Z,17.30
2022-09-23T17:13:43.124Z,17.10
2022-09-23T17:16:12.989Z,16.90
2022-09-23T17:18:41.514Z,16.80
2022-09-23T17:21:09.892Z,16.70
2022-09-23T17:23:38.653Z,16.70
2022-09-23T17:26:09.707Z,16.60
2022-09-23T17:28:40.619Z,16.50
2022-09-23T17:31:09.250Z,16.50
2022-09-23T17:33:38.993Z,16.40
2022-09-23T17:36:10.824Z,16.40
2022-09-23T17:38:40.657Z,16.30
2022-09-23T17:41:10.543Z,16.20
2022-09-23T17:43:41.269Z,16.10
2022-09-23T17:46:14.071Z,16.10
2022-09-23T17:48:43.268Z,16.00
2022-09-23T17:51:15.394Z,15.90
2022-09-23T17:53:46.874Z,15.80
2022-09-23T17:56:18.204Z,15.80
2022-09-23T17:58:50.798Z,15.80
2022-09-23T18:01:22.532Z,15.70
2022-09-23T18:03:55.889Z,15.60
2022-09-23T18:06:28.026Z,15.50
2022-09-23T18:08:56.838Z,15.50
2022-09-23T18:11:28.546Z,15.50
2022-09-23T18:14:00.182Z,15.50
2022-09-23T18:16:32.268Z,15.50
2022-09-23T18:19:03.131Z,15.40
2022-09-23T18:21:35.520Z,15.30
2022-09-23T18:24:34.186Z,15.30
2022-09-23T18:26:56.000Z,15.20
2022-09-23T18:29:25.460Z,15.10
2022-09-23T18:31:54.120Z,15.60
2022-09-23T18:34:22.732Z,15.10
2022-09-23T18:36:51.141Z,15.10
2022-09-23T18:39:19.235Z,15.00
2022-09-23T18:41:49.567Z,15.00
2022-09-23T18:44:18.969Z,15.20
2022-09-23T18:46:48.575Z,15.00
2022-09-23T18:49:34.122Z,15.00
2022-09-23T18:52:03.359Z,14.90
2022-09-23T18:54:32.000Z,14.80
2022-09-23T18:57:00.527Z,14.80
2022-09-23T18:59:29.751Z,14.80
2022-09-23T19:06:22.544Z,14.70
2022-09-23T19:09:23.915Z,14.60
2022-09-23T19:12:21.751Z,14.60
2022-09-23T19:15:01.214Z,14.60
2022-09-23T19:17:34.647Z,14.50
2022-09-23T19:20:05.044Z,14.50
2022-09-23T19:22:34.571Z,14.30
2022-09-23T19:25:02.620Z,14.40
2022-09-23T19:27:31.331Z,14.40
2022-09-23T19:29:59.824Z,14.30
2022-09-23T19:32:27.912Z,14.30
2022-09-23T19:35:18.740Z,14.30
2022-09-23T19:37:49.215Z,14.20
2022-09-23T19:40:17.437Z,14.20
2022-09-23T19:42:45.649Z,14.10
2022-09-23T19:45:14.037Z,14.10
2022-09-23T19:47:42.184Z,14.10
2022-09-23T19:50:11.771Z,14.00
2022-09-23T19:52:39.858Z,14.00
2022-09-23T19:55:09.663Z,14.00
2022-09-23T19:57:37.768Z,14.00
2022-09-23T20:00:07.997Z,14.00
2022-09-23T20:02:40.345Z,13.90
2022-09-23T20:05:12.204Z,13.90
2022-09-23T20:17:19.174Z,13.80
2022-09-23T20:19:47.404Z,13.80
2022-09-23T20:22:30.797Z,13.80
2022-09-23T20:25:02.529Z,13.80
2022-09-23T20:27:31.565Z,13.70
2022-09-23T20:30:00.553Z,13.80
2022-09-23T20:32:29.365Z,13.80
2022-09-23T20:34:57.736Z,13.80
2022-09-23T20:37:27.208Z,13.80
2022-09-23T20:39:55.258Z,13.80
2022-09-23T20:42:23.573Z,13.70
2022-09-23T20:44:51.581Z,13.80
2022-09-23T20:47:51.370Z,13.70
2022-09-23T20:50:43.538Z,13.80
2022-09-23T20:53:46.937Z,13.70
2022-09-23T20:56:18.940Z,13.70
2022-09-23T20:58:48.522Z,13.70
2022-09-23T21:01:17.476Z,13.70
2022-09-23T21:03:48.469Z,13.60
2022-09-23T21:06:19.577Z,13.70
2022-09-23T21:08:49.012Z,13.60
2022-09-23T21:11:18.582Z,13.60
2022-09-23T21:13:48.118Z,13.60
2022-09-23T21:16:18.374Z,13.60
2022-09-23T21:18:48.024Z,13.50
2022-09-23T21:21:19.638Z,13.60
2022-09-23T21:23:50.727Z,13.50
2022-09-23T21:26:23.411Z,13.50
2022-09-23T21:28:53.635Z,13.60
2022-09-23T21:31:26.400Z,13.50
2022-09-23T21:33:55.949Z,13.50
2022-09-23T21:36:25.428Z,13.50
2022-09-23T21:38:57.461Z,13.50
2022-09-23T21:41:26.883Z,13.40
2022-09-23T21:43:56.655Z,13.40
2022-09-23T21:46:28.352Z,13.30
2022-09-23T21:48:58.754Z,13.40
2022-09-23T21:51:30.387Z,13.30
2022-09-23T21:54:01.160Z,13.20
2022-09-23T21:56:33.092Z,13.20
2022-09-23T21:59:01.546Z,13.10
2022-09-23T22:01:33.174Z,13.10
2022-09-23T22:04:08.635Z,13.10
2022-09-23T22:06:40.449Z,13.00
2022-09-23T22:09:15.580Z,13.00
2022-09-23T22:12:01.742Z,13.00
2022-09-23T22:14:30.803Z,13.00
2022-09-23T22:17:02.235Z,13.00
2022-09-23T22:19:42.705Z,13.10
2022-09-23T22:22:18.205Z,13.10
2022-09-23T22:24:48.965Z,13.10
2022-09-23T22:27:20.156Z,13.10
2022-09-23T22:30:06.109Z,13.10
2022-09-23T22:32:41.692Z,13.20
2022-09-23T22:35:11.994Z,13.20
2022-09-23T22:37:40.335Z,13.30
2022-09-23T22:40:15.040Z,13.40
2022-09-23T22:42:44.458Z,13.40
2022-09-23T22:45:30.952Z,13.40
2022-09-23T22:47:59.253Z,13.40
2022-09-23T22:50:28.219Z,13.40
2022-09-23T22:52:58.740Z,13.30
2022-09-23T22:55:28.167Z,13.30
2022-09-23T22:57:56.649Z,13.30
2022-09-23T23:00:25.075Z,13.30
2022-09-23T23:02:54.526Z,13.40
2022-09-23T23:05:23.326Z,13.40
2022-09-23T23:07:51.516Z,13.40
2022-09-23T23:10:20.082Z,13.50
2022-09-23T23:12:49.588Z,13.50
2022-09-23T23:15:17.770Z,13.50
2022-09-23T23:17:46.156Z,13.40
2022-09-23T23:20:14.664Z,13.40
2022-09-23T23:22:42.733Z,13.40
2022-09-23T23:25:11.386Z,13.40
2022-09-23T23:27:39.437Z,13.40
2022-09-23T23:30:11.299Z,13.30
2022-09-23T23:32:39.792Z,13.30
2022-09-23T23:35:09.386Z,13.30
2022-09-23T23:37:37.976Z,13.30
2022-09-23T23:40:07.710Z,13.30
2022-09-23T23:42:36.377Z,13.30
2022-09-23T23:45:05.696Z,13.30
2022-09-23T23:47:36.039Z,13.30
2022-09-23T23:50:05.393Z,13.30
2022-09-23T23:52:33.565Z,13.20
2022-09-23T23:55:01.632Z,13.30
2022-09-23T23:57:29.665Z,13.20
2022-09-23T23:59:58.383Z,13.20
